createdAt,value
2023-02-05T00:01:35.738Z,3.60
2023-02-05T00:04:03.274Z,3.63
2023-02-05T00:06:30.368Z,3.00
2023-02-05T00:08:58.210Z,3.10
2023-02-05T00:11:26.192Z,2.67
2023-02-05T00:13:53.464Z,3.27
2023-02-05T00:16:23.107Z,3.03
2023-02-05T00:18:50.175Z,2.90
2023-02-05T00:21:18.355Z,2.53
2023-02-05T00:23:45.630Z,3.30
2023-02-05T00:26:15.963Z,2.93
2023-02-05T00:28:43.228Z,3.00
2023-02-05T00:31:16.616Z,2.73
2023-02-05T00:33:44.202Z,2.90
2023-02-05T00:36:13.064Z,2.67
2023-02-05T00:38:41.364Z,3.10
2023-02-05T00:41:08.884Z,3.37
2023-02-05T00:43:35.946Z,3.80
2023-02-05T00:46:03.375Z,3.00
2023-02-05T00:48:30.765Z,3.23
2023-02-05T00:50:57.870Z,2.87
2023-02-05T00:53:25.398Z,2.50
2023-02-05T00:55:53.358Z,2.80
2023-02-05T00:58:20.800Z,2.77
2023-02-05T01:00:49.616Z,3.30
2023-02-05T01:03:17.576Z,3.07
2023-02-05T01:05:44.805Z,2.93
2023-02-05T01:08:14.020Z,2.60
2023-02-05T01:10:46.560Z,3.57
2023-02-05T01:13:15.286Z,3.03
2023-02-05T01:15:44.800Z,3.40
2023-02-05T01:18:12.530Z,3.33
2023-02-05T01:20:41.339Z,3.40
2023-02-05T01:23:09.239Z,3.03
2023-02-05T01:25:36.475Z,3.00
2023-02-05T01:28:04.023Z,3.03
2023-02-05T01:30:31.305Z,3.37
2023-02-05T01:32:58.383Z,3.50
2023-02-05T01:35:25.494Z,3.17
2023-02-05T01:37:52.830Z,3.23
2023-02-05T01:40:21.199Z,3.20
2023-02-05T01:42:48.427Z,4.10
2023-02-05T01:45:32.781Z,4.00
2023-02-05T01:48:02.957Z,2.97
2023-02-05T01:50:36.510Z,3.30
2023-02-05T01:53:09.875Z,3.00
2023-02-05T01:55:42.235Z,3.70
2023-02-05T01:58:09.895Z,4.37
2023-02-05T02:00:37.138Z,4.00
2023-02-05T02:03:05.499Z,3.13
2023-02-05T02:05:32.980Z,3.63
2023-02-05T02:08:00.485Z,4.00
2023-02-05T02:10:27.902Z,3.27
2023-02-05T02:12:56.218Z,4.50
2023-02-05T02:15:27.416Z,3.47
2023-02-05T02:18:19.190Z,3.50
2023-02-05T02:21:06.972Z,3.37
2023-02-05T02:24:04.384Z,3.20
2023-02-05T02:26:40.708Z,3.17
2023-02-05T02:29:12.646Z,2.80
2023-02-05T02:31:51.084Z,2.20
2023-02-05T02:34:33.268Z,3.20
2023-02-05T02:37:25.258Z,2.83
2023-02-05T02:40:16.168Z,3.17
2023-02-05T02:42:49.222Z,3.27
2023-02-05T02:45:19.970Z,3.30
2023-02-05T02:47:56.365Z,2.60
2023-02-05T02:50:34.895Z,2.63
2023-02-05T02:53:08.472Z,2.47
2023-02-05T02:55:39.251Z,3.10
2023-02-05T02:58:12.738Z,3.50
2023-02-05T03:00:41.547Z,3.27
2023-02-05T03:03:11.358Z,2.90
2023-02-05T03:05:41.515Z,3.10
2023-02-05T03:08:19.470Z,2.93
2023-02-05T03:10:54.003Z,3.40
2023-02-05T03:13:21.205Z,2.90
2023-02-05T03:15:48.603Z,3.27
2023-02-05T03:18:18.368Z,2.90
2023-02-05T03:21:17.514Z,3.13
2023-02-05T03:23:45.316Z,3.20
2023-02-05T03:26:25.782Z,2.93
2023-02-05T03:28:56.801Z,2.90
2023-02-05T03:31:34.106Z,3.07
2023-02-05T03:34:47.905Z,2.97
2023-02-05T03:37:29.266Z,3.80
2023-02-05T03:40:05.345Z,2.80
2023-02-05T03:42:58.363Z,2.97
2023-02-05T03:45:46.591Z,3.00
2023-02-05T03:48:40.045Z,2.40
2023-02-05T03:51:13.244Z,2.77
2023-02-05T03:53:48.495Z,2.80
2023-02-05T03:56:26.775Z,3.67
2023-02-05T03:58:56.335Z,2.63
2023-02-05T04:01:24.880Z,2.60
2023-02-05T04:03:52.072Z,3.43
2023-02-05T04:06:19.428Z,3.20
2023-02-05T04:08:46.446Z,3.13
2023-02-05T04:11:13.988Z,3.00
2023-02-05T04:13:41.003Z,2.73
2023-02-05T04:16:08.048Z,3.00
2023-02-05T04:18:35.166Z,2.97
2023-02-05T04:21:02.255Z,2.67
2023-02-05T04:23:29.339Z,3.40
2023-02-05T04:25:56.714Z,2.33
2023-02-05T04:28:23.758Z,3.77
2023-02-05T04:30:50.771Z,2.90
2023-02-05T04:33:17.824Z,3.23
2023-02-05T04:35:44.904Z,3.70
2023-02-05T04:38:11.858Z,2.90
2023-02-05T04:40:38.906Z,3.90
2023-02-05T04:43:06.081Z,3.40
2023-02-05T04:45:33.778Z,3.20
2023-02-05T04:48:01.013Z,2.70
2023-02-05T04:50:28.243Z,3.40
2023-02-05T04:52:55.280Z,3.20
2023-02-05T04:55:22.428Z,2.87
2023-02-05T04:57:51.797Z,3.47
2023-02-05T05:00:20.188Z,3.60
2023-02-05T05:02:47.329Z,3.37
2023-02-05T05:05:14.551Z,3.47
2023-02-05T05:07:41.589Z,3.50
2023-02-05T05:10:09.417Z,2.50
2023-02-05T05:12:37.499Z,2.67
2023-02-05T05:15:08.397Z,2.90
2023-02-05T05:17:35.422Z,2.80
2023-02-05T05:20:02.932Z,3.07
2023-02-05T05:22:30.071Z,3.50
2023-02-05T05:24:57.063Z,2.80
2023-02-05T05:27:25.007Z,4.27
2023-02-05T05:29:52.187Z,3.30
2023-02-05T05:32:19.282Z,3.20
2023-02-05T05:34:46.373Z,2.90
2023-02-05T05:37:13.388Z,3.60
2023-02-05T05:39:58.922Z,3.10
2023-02-05T05:42:47.196Z,2.77
2023-02-05T05:45:14.230Z,2.80
2023-02-05T05:47:41.302Z,2.77
2023-02-05T05:50:08.624Z,3.57
2023-02-05T05:52:35.683Z,3.77
2023-02-05T05:55:02.672Z,3.07
2023-02-05T05:57:29.756Z,2.90
2023-02-05T05:59:56.831Z,3.43
2023-02-05T06:02:23.980Z,3.03
2023-02-05T06:04:51.104Z,3.13
2023-02-05T06:07:18.185Z,3.50
2023-02-05T06:09:45.198Z,2.80
2023-02-05T06:12:12.174Z,3.10
2023-02-05T06:14:39.393Z,3.63
2023-02-05T06:17:07.466Z,3.27
2023-02-05T06:19:34.523Z,3.10
2023-02-05T06:22:04.652Z,3.10
2023-02-05T06:24:31.712Z,3.03
2023-02-05T06:26:58.753Z,3.40
2023-02-05T06:29:25.796Z,3.90
2023-02-05T06:31:52.953Z,3.13
2023-02-05T06:34:20.017Z,3.60
2023-02-05T06:36:47.061Z,3.63
2023-02-05T06:39:14.060Z,3.37
2023-02-05T06:41:41.058Z,3.87
2023-02-05T06:44:08.195Z,3.53
2023-02-05T06:46:35.255Z,3.90
2023-02-05T06:49:02.267Z,3.67
2023-02-05T06:51:29.363Z,3.60
2023-02-05T06:53:57.473Z,3.23
2023-02-05T06:56:24.650Z,2.77
2023-02-05T06:58:51.807Z,3.30
2023-02-05T07:01:19.048Z,3.83
2023-02-05T07:03:48.569Z,3.00
2023-02-05T07:06:15.907Z,3.40
2023-02-05T07:08:43.113Z,3.80
2023-02-05T07:11:10.291Z,3.47
2023-02-05T07:13:37.316Z,3.40
2023-02-05T07:16:05.238Z,3.63
2023-02-05T07:18:34.098Z,4.13
2023-02-05T07:21:05.932Z,3.83
2023-02-05T07:23:33.232Z,3.03
2023-02-05T07:26:07.490Z,4.40
2023-02-05T07:28:34.585Z,3.30
2023-02-05T07:31:06.718Z,3.63
2023-02-05T07:33:34.114Z,3.03
2023-02-05T07:36:09.000Z,3.90
2023-02-05T07:38:37.838Z,4.13
2023-02-05T07:41:09.746Z,4.60
2023-02-05T07:43:37.764Z,4.10
2023-02-05T07:46:11.324Z,3.73
2023-02-05T07:48:39.172Z,3.70
2023-02-05T07:51:07.038Z,3.77
2023-02-05T07:53:34.311Z,3.47
2023-02-05T07:56:05.285Z,3.93
2023-02-05T07:58:32.540Z,4.07
2023-02-05T08:01:03.425Z,3.63
2023-02-05T08:03:31.372Z,4.37
2023-02-05T08:05:58.992Z,3.70
2023-02-05T08:08:26.083Z,3.87
2023-02-05T08:11:01.464Z,3.93
2023-02-05T08:13:28.761Z,3.60
2023-02-05T08:15:56.070Z,4.30
2023-02-05T08:18:23.683Z,3.93
2023-02-05T08:20:55.271Z,4.40
2023-02-05T08:23:22.506Z,3.47
2023-02-05T08:25:57.710Z,4.17
2023-02-05T08:28:26.943Z,3.60
2023-02-05T08:30:54.347Z,3.57
2023-02-05T08:33:21.496Z,3.80
2023-02-05T08:35:48.525Z,3.80
2023-02-05T08:38:15.667Z,4.37
2023-02-05T08:40:42.883Z,4.00
2023-02-05T08:43:09.931Z,3.80
2023-02-05T08:45:37.573Z,3.10
2023-02-05T08:48:04.978Z,3.77
2023-02-05T08:50:32.130Z,4.33
2023-02-05T08:52:59.168Z,4.60
2023-02-05T08:55:26.236Z,3.70
2023-02-05T08:57:53.241Z,3.23
2023-02-05T09:00:21.277Z,3.00
2023-02-05T09:02:48.368Z,3.93
2023-02-05T09:05:15.518Z,3.73
2023-02-05T09:07:42.753Z,4.17
2023-02-05T09:10:11.942Z,3.73
2023-02-05T09:12:39.289Z,4.33
2023-02-05T09:15:08.000Z,3.73
2023-02-05T09:17:35.292Z,4.03
2023-02-05T09:20:02.855Z,3.97
2023-02-05T09:22:30.029Z,3.70
2023-02-05T09:24:57.261Z,3.77
2023-02-05T09:27:24.474Z,4.50
2023-02-05T09:29:51.538Z,4.33
2023-02-05T09:32:18.654Z,4.23
2023-02-05T09:34:45.621Z,3.90
2023-02-05T09:37:16.662Z,3.37
2023-02-05T09:40:18.798Z,4.03
2023-02-05T09:43:02.966Z,4.00
2023-02-05T09:45:48.414Z,4.00
2023-02-05T09:48:39.919Z,3.90
2023-02-05T09:51:11.442Z,3.93
2023-02-05T09:53:45.426Z,4.33
2023-02-05T09:56:14.481Z,4.53
2023-02-05T09:58:48.574Z,3.90
2023-02-05T10:01:29.859Z,4.60
2023-02-05T10:04:01.434Z,3.43
2023-02-05T10:06:40.687Z,4.00
2023-02-05T10:09:30.085Z,3.90
2023-02-05T10:12:14.463Z,4.27
2023-02-05T10:14:55.113Z,4.07
2023-02-05T10:17:34.483Z,4.10
2023-02-05T10:20:25.717Z,4.00
2023-02-05T10:23:07.758Z,3.80
2023-02-05T10:26:00.788Z,4.43
2023-02-05T10:28:46.421Z,3.73
2023-02-05T10:31:25.464Z,3.80
2023-02-05T10:33:57.522Z,4.50
2023-02-05T10:36:26.953Z,5.03
2023-02-05T10:38:58.227Z,4.23
2023-02-05T10:41:36.684Z,4.03
2023-02-05T10:44:18.684Z,3.70
2023-02-05T10:46:51.834Z,4.30
2023-02-05T10:49:46.418Z,4.87
2023-02-05T10:52:15.423Z,4.10
2023-02-05T10:54:43.084Z,3.47
2023-02-05T10:57:18.586Z,3.90
2023-02-05T11:00:14.230Z,4.30
2023-02-05T11:02:47.893Z,4.43
2023-02-05T11:05:35.892Z,4.30
2023-02-05T11:08:03.191Z,4.70
2023-02-05T11:10:35.230Z,4.60
2023-02-05T11:13:32.992Z,4.43
2023-02-05T11:16:08.495Z,4.13
2023-02-05T11:18:47.180Z,4.70
2023-02-05T11:21:14.491Z,5.60
2023-02-05T11:23:56.061Z,4.63
2023-02-05T11:26:25.969Z,5.50
2023-02-05T11:28:53.062Z,6.03
2023-02-05T11:31:28.033Z,5.90
2023-02-05T11:34:21.187Z,5.10
2023-02-05T11:36:52.494Z,6.00
2023-02-05T11:39:28.699Z,5.53
2023-02-05T11:41:56.828Z,5.87
2023-02-05T11:44:32.127Z,6.50
2023-02-05T11:47:01.763Z,6.27
2023-02-05T11:49:35.140Z,6.30
2023-02-05T11:52:10.388Z,6.20
2023-02-05T11:54:38.987Z,7.77
2023-02-05T11:57:17.938Z,4.73
2023-02-05T12:00:09.123Z,6.90
2023-02-05T12:02:44.176Z,6.10
2023-02-05T12:05:17.020Z,5.23
2023-02-05T12:07:56.794Z,5.33
2023-02-05T12:10:43.456Z,6.00
2023-02-05T12:13:35.484Z,6.40
2023-02-05T12:16:17.585Z,6.33
2023-02-05T12:19:16.896Z,6.20
2023-02-05T12:21:51.713Z,5.90
2023-02-05T12:24:25.208Z,6.80
2023-02-05T12:27:17.572Z,6.80
2023-02-05T12:29:56.506Z,6.87
2023-02-05T12:32:38.273Z,7.57
2023-02-05T12:35:22.202Z,7.60
2023-02-05T12:37:49.183Z,7.23
2023-02-05T12:40:53.917Z,8.50
2023-02-05T12:43:42.239Z,8.00
2023-02-05T12:46:53.381Z,7.70
2023-02-05T12:49:38.433Z,7.67
2023-02-05T12:52:30.867Z,6.77
2023-02-05T12:55:14.059Z,8.30
2023-02-05T12:58:03.116Z,7.80
2023-02-05T13:00:39.742Z,9.10
2023-02-05T13:03:22.275Z,7.50
2023-02-05T13:05:57.023Z,8.13
2023-02-05T13:08:39.713Z,7.27
2023-02-05T13:11:24.495Z,8.03
2023-02-05T13:13:58.563Z,6.37
2023-02-05T13:16:51.026Z,7.60
2023-02-05T13:19:23.937Z,7.70
2023-02-05T13:22:13.883Z,7.63
2023-02-05T13:25:41.756Z,7.20
2023-02-05T13:28:42.981Z,8.47
2023-02-05T13:31:42.109Z,8.47
2023-02-05T13:34:12.998Z,8.30
2023-02-05T13:37:31.123Z,7.43
2023-02-05T13:40:26.708Z,9.20
2023-02-05T13:43:21.578Z,8.33
2023-02-05T13:45:57.674Z,8.63
2023-02-05T13:48:53.242Z,9.73
2023-02-05T13:51:43.148Z,7.73
2023-02-05T13:54:39.005Z,8.77
2023-02-05T13:57:27.470Z,8.50
2023-02-05T13:59:55.717Z,7.83
2023-02-05T14:02:39.126Z,8.27
2023-02-05T14:05:07.532Z,9.30
2023-02-05T14:07:47.155Z,9.03
2023-02-05T14:10:29.776Z,8.67
2023-02-05T14:13:24.545Z,8.13
2023-02-05T14:15:57.529Z,8.13
2023-02-05T14:18:43.532Z,9.37
2023-02-05T14:21:32.492Z,9.10
2023-02-05T14:24:03.289Z,8.40
2023-02-05T14:26:53.952Z,9.17
2023-02-05T14:29:51.528Z,9.73
2023-02-05T14:32:27.565Z,8.80
2023-02-05T14:35:00.615Z,9.73
2023-02-05T14:37:38.320Z,8.40
2023-02-05T14:40:39.028Z,9.80
2023-02-05T14:43:26.722Z,8.27
2023-02-05T14:45:55.076Z,9.97
2023-02-05T14:48:30.977Z,76.60
2023-02-05T14:51:40.631Z,56.73
2023-02-05T14:54:18.350Z,103.07
2023-02-05T14:56:47.141Z,90.03
2023-02-05T14:59:22.543Z,60.70
2023-02-05T15:01:54.387Z,57.17
2023-02-05T15:04:30.174Z,56.27
2023-02-05T15:07:01.413Z,52.17
2023-02-05T15:09:50.957Z,50.60
2023-02-05T15:13:02.751Z,49.60
2023-02-05T15:15:33.438Z,44.17
2023-02-05T15:18:12.807Z,42.20
2023-02-05T15:20:41.842Z,39.40
2023-02-05T15:23:25.352Z,39.77
2023-02-05T15:26:05.739Z,37.17
2023-02-05T15:28:51.477Z,38.07
2023-02-05T15:31:28.623Z,35.23
2023-02-05T15:34:09.542Z,33.07
2023-02-05T15:36:43.298Z,32.80
2023-02-05T15:39:45.257Z,29.83
2023-02-05T15:42:19.363Z,26.47
2023-02-05T15:44:48.192Z,27.60
2023-02-05T15:47:22.900Z,24.10
2023-02-05T15:49:57.597Z,24.80
2023-02-05T15:52:30.434Z,24.00
2023-02-05T15:55:01.448Z,22.33
2023-02-05T15:57:31.168Z,22.17
2023-02-05T16:00:00.603Z,20.60
2023-02-05T16:02:29.570Z,20.20
2023-02-05T16:05:18.038Z,20.27
2023-02-05T16:07:51.892Z,19.27
2023-02-05T16:10:22.836Z,18.03
2023-02-05T16:13:07.266Z,18.90
2023-02-05T16:15:43.119Z,20.20
2023-02-05T16:18:22.154Z,18.10
2023-02-05T16:20:55.641Z,18.10
2023-02-05T16:23:32.061Z,16.40
2023-02-05T16:26:25.534Z,17.70
2023-02-05T16:29:02.490Z,16.60
2023-02-05T16:31:31.950Z,18.47
2023-02-05T16:34:03.281Z,16.60
2023-02-05T16:36:34.863Z,17.70
2023-02-05T16:39:20.839Z,16.50
2023-02-05T16:42:05.118Z,17.17
2023-02-05T16:44:37.669Z,18.13
2023-02-05T16:47:17.039Z,16.97
2023-02-05T16:49:47.049Z,15.97
2023-02-05T16:52:35.512Z,15.87
2023-02-05T16:55:29.247Z,18.97
2023-02-05T16:58:03.091Z,15.37
2023-02-05T17:00:30.579Z,13.83
2023-02-05T17:03:08.325Z,15.13
2023-02-05T17:05:37.246Z,16.03
2023-02-05T17:08:09.562Z,14.30
2023-02-05T17:10:57.877Z,13.43
2023-02-05T17:13:33.334Z,13.70
2023-02-05T17:16:19.418Z,15.20
2023-02-05T17:19:01.517Z,12.87
2023-02-05T17:21:32.982Z,14.10
2023-02-05T17:24:03.012Z,13.97
2023-02-05T17:26:33.589Z,14.20
2023-02-05T17:29:04.953Z,13.43
2023-02-05T17:31:39.072Z,13.67
2023-02-05T17:34:06.781Z,13.30
2023-02-05T17:36:33.772Z,13.13
2023-02-05T17:39:01.060Z,12.17
2023-02-05T17:41:51.150Z,13.13
2023-02-05T17:44:19.115Z,12.40
2023-02-05T17:46:46.631Z,11.43
2023-02-05T17:49:13.868Z,12.50
2023-02-05T17:51:42.984Z,11.07
2023-02-05T17:54:19.430Z,10.70
2023-02-05T17:56:48.507Z,10.70
2023-02-05T17:59:21.121Z,11.00
2023-02-05T18:01:49.914Z,9.60
2023-02-05T18:04:18.805Z,10.67
2023-02-05T18:06:51.154Z,9.63
2023-02-05T18:09:20.110Z,9.70
2023-02-05T18:11:47.550Z,9.47
2023-02-05T18:14:19.056Z,8.03
2023-02-05T18:51:48.872Z,4.97
2023-02-05T18:54:15.974Z,5.37
2023-02-05T18:56:43.056Z,4.90
2023-02-05T18:59:14.396Z,4.00
2023-02-05T19:01:41.778Z,4.50
2023-02-05T19:04:13.148Z,3.70
2023-02-05T19:06:45.532Z,4.10
2023-02-05T19:09:12.777Z,3.73
2023-02-05T19:11:44.174Z,3.60
2023-02-05T19:14:14.107Z,3.50
2023-02-05T19:16:42.028Z,3.47
2023-02-05T19:19:10.818Z,3.83
2023-02-05T19:21:37.975Z,3.07
2023-02-05T19:24:07.276Z,4.83
2023-02-05T19:26:35.932Z,3.70
2023-02-05T19:29:06.243Z,4.43
2023-02-05T19:31:35.378Z,3.80
2023-02-05T19:34:02.812Z,5.60
2023-02-05T19:36:30.750Z,6.03
2023-02-05T19:39:00.682Z,5.30
2023-02-05T19:41:28.601Z,5.80
2023-02-05T19:43:58.100Z,5.73
2023-02-05T19:46:28.292Z,6.37
2023-02-05T19:48:56.326Z,6.27
2023-02-05T19:51:23.492Z,6.17
2023-02-05T19:53:50.883Z,5.93
2023-02-05T19:56:20.582Z,5.27
2023-02-05T19:58:51.081Z,5.30
2023-02-05T20:01:20.602Z,4.40
2023-02-05T20:03:47.843Z,4.73
2023-02-05T20:06:17.226Z,4.57
2023-02-05T20:08:45.675Z,4.77
2023-02-05T20:11:13.619Z,4.97
2023-02-05T20:13:41.932Z,4.73
2023-02-05T20:16:13.943Z,5.30
2023-02-05T20:18:41.853Z,3.97
2023-02-05T20:21:11.663Z,5.37
2023-02-05T20:23:39.122Z,6.57
2023-02-05T20:26:08.007Z,5.83
2023-02-05T20:28:59.778Z,5.20
2023-02-05T20:31:35.340Z,4.43
2023-02-05T20:34:06.022Z,5.00
2023-02-05T20:36:34.165Z,5.03
2023-02-05T20:39:07.120Z,4.67
2023-02-05T20:41:35.119Z,4.23
2023-02-05T20:44:03.374Z,4.23
2023-02-05T20:46:31.388Z,4.63
2023-02-05T20:49:00.549Z,4.43
2023-02-05T20:51:27.781Z,4.00
2023-02-05T20:53:59.272Z,5.03
2023-02-05T20:56:27.902Z,5.30
2023-02-05T20:58:57.624Z,5.80
2023-02-05T21:01:26.377Z,6.13
2023-02-05T21:03:57.900Z,6.10
2023-02-05T21:06:26.138Z,8.33
2023-02-05T21:08:53.778Z,8.20
2023-02-05T21:11:22.642Z,9.80
2023-02-05T21:13:50.738Z,9.20
2023-02-05T21:16:21.448Z,9.20
2023-02-05T21:18:51.634Z,7.67
2023-02-05T21:21:24.143Z,9.30
2023-02-05T21:23:56.361Z,10.53
2023-02-05T21:26:32.417Z,9.70
2023-02-05T21:29:02.677Z,8.93
2023-02-05T21:31:34.976Z,9.17
2023-02-05T21:34:07.693Z,7.03
2023-02-05T21:36:35.344Z,8.13
2023-02-05T21:39:03.003Z,8.50
2023-02-05T21:41:30.259Z,6.80
2023-02-05T21:43:59.873Z,6.90
2023-02-05T21:46:29.445Z,6.47
2023-02-05T21:48:58.883Z,5.93
2023-02-05T21:51:29.008Z,5.40
2023-02-05T21:53:59.034Z,5.33
2023-02-05T21:56:45.602Z,5.10
2023-02-05T21:59:13.175Z,5.53
2023-02-05T22:01:42.006Z,4.03
2023-02-05T22:04:13.079Z,3.53
2023-02-05T22:06:40.755Z,3.30
2023-02-05T22:09:10.048Z,2.93
2023-02-05T22:11:39.423Z,3.07
2023-02-05T22:14:07.170Z,4.10
2023-02-05T22:16:35.466Z,3.73
2023-02-05T22:19:03.551Z,3.13
2023-02-05T22:21:39.724Z,4.07
2023-02-05T22:24:08.400Z,3.40
2023-02-05T22:26:38.029Z,3.30
2023-02-05T22:29:07.416Z,3.77
2023-02-05T22:31:34.852Z,3.10
2023-02-05T22:34:02.411Z,2.93
2023-02-05T22:36:31.599Z,2.73
2023-02-05T22:38:59.110Z,2.70
2023-02-05T22:41:31.760Z,2.20
2023-02-05T22:44:00.418Z,2.93
2023-02-05T22:46:29.686Z,3.00
2023-02-05T22:48:59.497Z,2.80
2023-02-05T22:51:29.578Z,3.30
2023-02-05T22:53:56.687Z,2.50
2023-02-05T22:56:24.398Z,2.67
2023-02-05T22:58:52.592Z,2.70
2023-02-05T23:01:28.041Z,2.83
2023-02-05T23:03:56.897Z,3.07
2023-02-05T23:06:25.235Z,4.10
2023-02-05T23:08:57.409Z,3.57
2023-02-05T23:11:26.217Z,4.17
2023-02-05T23:13:53.328Z,5.10
2023-02-05T23:16:28.665Z,3.80
2023-02-05T23:18:58.321Z,3.20
2023-02-05T23:21:27.215Z,4.10
2023-02-05T23:23:54.985Z,3.37
2023-02-05T23:26:24.888Z,3.97
2023-02-05T23:28:53.842Z,3.50
2023-02-05T23:31:22.665Z,3.00
2023-02-05T23:33:50.354Z,3.23
2023-02-05T23:36:17.847Z,3.20
2023-02-05T23:38:45.220Z,3.73
2023-02-05T23:41:12.434Z,3.67
2023-02-05T23:43:40.011Z,3.63
2023-02-05T23:46:08.374Z,3.00
2023-02-05T23:48:35.587Z,3.67
2023-02-05T23:51:02.708Z,2.67
2023-02-05T23:53:29.832Z,3.00
2023-02-05T23:55:56.884Z,3.13
2023-02-05T23:58:26.014Z,2.70
